createdAt,value
2022-10-22T00:00:48.159Z,0.00
2022-10-22T00:01:48.170Z,0.00
2022-10-22T00:02:48.224Z,0.00
2022-10-22T00:03:48.192Z,0.00
2022-10-22T00:04:48.237Z,0.00
2022-10-22T00:05:48.215Z,0.00
2022-10-22T00:06:48.229Z,0.00
2022-10-22T00:07:48.237Z,0.00
2022-10-22T00:08:48.302Z,0.00
2022-10-22T00:09:48.262Z,0.00
2022-10-22T00:10:48.276Z,0.00
2022-10-22T00:11:48.386Z,0.00
2022-10-22T00:12:48.297Z,0.00
2022-10-22T00:13:48.352Z,0.00
2022-10-22T00:14:48.320Z,0.00
2022-10-22T00:15:48.334Z,0.00
2022-10-22T00:16:48.347Z,0.00
2022-10-22T00:17:48.354Z,0.00
2022-10-22T00:18:48.372Z,0.00
2022-10-22T00:19:48.375Z,0.00
2022-10-22T00:20:48.407Z,0.00
2022-10-22T00:21:48.402Z,0.00
2022-10-22T00:22:48.467Z,0.00
2022-10-22T00:23:48.423Z,0.00
2022-10-22T00:24:48.435Z,0.00
2022-10-22T00:25:48.445Z,0.00
2022-10-22T00:26:48.457Z,0.00
2022-10-22T00:27:48.479Z,0.00
2022-10-22T00:28:48.480Z,0.00
2022-10-22T00:29:48.491Z,0.00
2022-10-22T00:30:48.507Z,0.00
2022-10-22T00:31:48.555Z,0.00
2022-10-22T00:32:48.529Z,0.00
2022-10-22T00:33:48.538Z,0.00
2022-10-22T00:34:48.553Z,0.00
2022-10-22T00:35:48.566Z,0.00
2022-10-22T00:36:48.642Z,0.00
2022-10-22T00:37:48.582Z,0.00
2022-10-22T00:38:48.595Z,0.00
2022-10-22T00:39:48.605Z,0.00
2022-10-22T00:40:48.650Z,0.00
2022-10-22T00:41:48.631Z,0.00
2022-10-22T00:42:48.643Z,0.00
2022-10-22T00:43:48.651Z,0.00
2022-10-22T00:44:48.663Z,0.00
2022-10-22T00:45:48.673Z,0.00
2022-10-22T00:46:48.688Z,0.00
2022-10-22T00:47:48.695Z,0.00
2022-10-22T00:48:48.711Z,0.00
2022-10-22T00:49:48.720Z,0.00
2022-10-22T00:50:48.734Z,0.00
2022-10-22T00:51:48.743Z,0.00
2022-10-22T00:52:48.774Z,0.00
2022-10-22T00:53:48.764Z,0.00
2022-10-22T00:54:48.781Z,0.00
2022-10-22T00:55:48.787Z,0.00
2022-10-22T00:56:48.802Z,0.00
2022-10-22T00:57:48.815Z,0.00
2022-10-22T00:58:48.829Z,0.00
2022-10-22T00:59:48.834Z,0.00
2022-10-22T01:00:48.879Z,0.00
2022-10-22T01:01:48.869Z,0.00
2022-10-22T01:02:48.868Z,0.00
2022-10-22T01:03:48.884Z,0.00
2022-10-22T01:04:48.898Z,0.00
2022-10-22T01:05:48.902Z,0.00
2022-10-22T01:06:49.017Z,0.00
2022-10-22T01:07:48.928Z,0.00
2022-10-22T01:08:49.023Z,0.00
2022-10-22T01:09:48.950Z,0.00
2022-10-22T01:10:48.962Z,0.00
2022-10-22T01:11:48.971Z,0.00
2022-10-22T01:12:48.982Z,0.00
2022-10-22T01:13:48.997Z,0.00
2022-10-22T01:14:49.008Z,0.00
2022-10-22T01:15:49.016Z,0.00
2022-10-22T01:16:49.032Z,0.00
2022-10-22T01:17:49.039Z,0.00
2022-10-22T01:18:49.054Z,0.00
2022-10-22T01:19:49.073Z,0.00
2022-10-22T01:20:49.074Z,0.00
2022-10-22T01:21:49.082Z,0.00
2022-10-22T01:22:49.199Z,0.00
2022-10-22T01:23:49.149Z,0.00
2022-10-22T01:24:49.137Z,0.00
2022-10-22T01:25:49.132Z,0.00
2022-10-22T01:26:49.142Z,0.00
2022-10-22T01:27:49.151Z,0.00
2022-10-22T01:28:49.165Z,0.00
2022-10-22T01:29:49.188Z,0.00
2022-10-22T01:30:49.193Z,0.00
2022-10-22T01:31:49.193Z,0.00
2022-10-22T01:32:49.209Z,0.00
2022-10-22T01:33:49.214Z,0.00
2022-10-22T01:34:49.229Z,0.00
2022-10-22T01:35:49.236Z,0.00
2022-10-22T01:36:49.250Z,0.00
2022-10-22T01:37:49.370Z,0.00
2022-10-22T01:38:49.271Z,0.00
2022-10-22T01:39:49.280Z,0.00
2022-10-22T01:40:49.312Z,0.00
2022-10-22T01:41:49.304Z,0.00
2022-10-22T01:42:49.316Z,0.00
2022-10-22T01:43:49.326Z,0.00
2022-10-22T01:44:49.337Z,0.00
2022-10-22T01:45:49.347Z,0.00
2022-10-22T01:46:49.359Z,0.00
2022-10-22T01:47:49.367Z,0.00
2022-10-22T01:48:49.432Z,0.00
2022-10-22T01:49:49.389Z,0.00
2022-10-22T01:50:49.404Z,0.00
2022-10-22T01:51:49.410Z,0.00
2022-10-22T01:52:49.423Z,0.00
2022-10-22T01:53:49.434Z,0.00
2022-10-22T01:54:49.446Z,0.00
2022-10-22T01:55:49.463Z,0.00
2022-10-22T01:56:49.496Z,0.00
2022-10-22T01:57:49.476Z,0.00
2022-10-22T01:58:49.491Z,0.00
2022-10-22T01:59:49.500Z,0.00
2022-10-22T02:00:49.557Z,0.00
2022-10-22T02:01:49.523Z,0.00
2022-10-22T02:02:49.544Z,0.00
2022-10-22T02:03:49.549Z,0.00
2022-10-22T02:04:49.553Z,0.00
2022-10-22T02:05:49.562Z,0.00
2022-10-22T02:06:49.580Z,0.00
2022-10-22T02:07:49.589Z,0.00
2022-10-22T02:08:49.663Z,0.00
2022-10-22T02:09:49.713Z,0.00
2022-10-22T02:10:49.640Z,0.00
2022-10-22T02:11:49.624Z,0.00
2022-10-22T02:12:49.657Z,0.00
2022-10-22T02:13:49.652Z,0.00
2022-10-22T02:14:49.661Z,0.00
2022-10-22T02:15:49.668Z,0.00
2022-10-22T02:16:49.719Z,0.00
2022-10-22T02:17:49.691Z,0.00
2022-10-22T02:18:49.704Z,0.00
2022-10-22T02:19:49.717Z,0.00
2022-10-22T02:20:49.725Z,0.00
2022-10-22T02:21:49.735Z,0.00
2022-10-22T02:22:49.752Z,0.00
2022-10-22T02:23:49.753Z,0.00
2022-10-22T02:24:49.766Z,0.00
2022-10-22T02:25:49.777Z,0.00
2022-10-22T02:26:49.789Z,0.00
2022-10-22T02:27:49.796Z,0.00
2022-10-22T02:28:49.833Z,0.00
2022-10-22T02:29:49.815Z,0.00
2022-10-22T02:30:49.832Z,0.00
2022-10-22T02:31:49.841Z,0.00
2022-10-22T02:32:49.961Z,0.00
2022-10-22T02:33:49.861Z,0.00
2022-10-22T02:34:49.871Z,0.00
2022-10-22T02:35:49.879Z,0.00
2022-10-22T02:36:50.569Z,0.00
2022-10-22T02:37:49.904Z,0.00
2022-10-22T02:38:49.915Z,0.00
2022-10-22T02:39:49.925Z,0.00
2022-10-22T02:40:49.938Z,0.00
2022-10-22T02:41:49.949Z,0.00
2022-10-22T02:42:49.958Z,0.00
2022-10-22T02:43:49.966Z,0.00
2022-10-22T02:44:50.000Z,0.00
2022-10-22T02:45:49.986Z,0.00
2022-10-22T02:46:49.999Z,0.00
2022-10-22T02:47:50.025Z,0.00
2022-10-22T02:48:50.027Z,0.00
2022-10-22T02:49:50.031Z,0.00
2022-10-22T02:50:50.047Z,0.00
2022-10-22T02:51:50.051Z,0.00
2022-10-22T02:52:50.163Z,0.00
2022-10-22T02:53:50.076Z,0.00
2022-10-22T02:54:50.086Z,0.00
2022-10-22T02:55:50.092Z,0.00
2022-10-22T02:56:50.106Z,0.00
2022-10-22T02:57:50.114Z,0.00
2022-10-22T02:58:50.126Z,0.00
2022-10-22T02:59:50.136Z,0.00
2022-10-22T03:00:50.254Z,0.00
2022-10-22T03:01:50.157Z,0.00
2022-10-22T03:02:50.168Z,0.00
2022-10-22T03:03:50.176Z,0.00
2022-10-22T03:04:50.190Z,0.00
2022-10-22T03:05:50.200Z,0.00
2022-10-22T03:06:50.212Z,0.00
2022-10-22T03:07:50.218Z,0.00
2022-10-22T03:08:50.333Z,0.00
2022-10-22T03:09:50.242Z,0.00
2022-10-22T03:10:50.353Z,0.00
2022-10-22T03:11:50.264Z,0.00
2022-10-22T03:12:50.273Z,0.00
2022-10-22T03:13:50.285Z,0.00
2022-10-22T03:14:50.295Z,0.00
2022-10-22T03:15:50.304Z,0.00
2022-10-22T03:16:50.334Z,0.00
2022-10-22T03:17:50.327Z,0.00
2022-10-22T03:18:50.344Z,0.00
2022-10-22T03:19:50.351Z,0.00
2022-10-22T03:20:50.357Z,0.00
2022-10-22T03:21:50.384Z,0.00
2022-10-22T03:22:50.379Z,0.00
2022-10-22T03:23:50.394Z,0.00
2022-10-22T03:24:50.398Z,0.00
2022-10-22T03:25:50.503Z,0.00
2022-10-22T03:26:50.423Z,0.00
2022-10-22T03:27:50.434Z,0.00
2022-10-22T03:28:50.442Z,0.00
2022-10-22T03:29:50.454Z,0.00
2022-10-22T03:30:50.463Z,0.00
2022-10-22T03:31:50.475Z,0.00
2022-10-22T03:32:50.502Z,0.00
2022-10-22T03:33:50.543Z,0.00
2022-10-22T03:34:50.612Z,0.00
2022-10-22T03:35:50.518Z,0.00
2022-10-22T03:36:50.527Z,0.00
2022-10-22T03:37:50.539Z,0.00
2022-10-22T03:38:50.551Z,0.00
2022-10-22T03:39:50.560Z,0.00
2022-10-22T03:40:50.572Z,0.00
2022-10-22T03:41:50.585Z,0.00
2022-10-22T03:42:50.589Z,0.00
2022-10-22T03:43:50.607Z,0.00
2022-10-22T03:44:50.612Z,0.00
2022-10-22T03:45:50.628Z,0.00
2022-10-22T03:46:50.633Z,0.00
2022-10-22T03:47:50.645Z,0.00
2022-10-22T03:48:50.672Z,0.00
2022-10-22T03:49:50.666Z,0.00
2022-10-22T03:50:50.679Z,0.00
2022-10-22T03:51:50.690Z,0.00
2022-10-22T03:52:50.696Z,0.00
2022-10-22T03:53:50.711Z,0.00
2022-10-22T03:54:50.717Z,0.00
2022-10-22T03:55:50.732Z,0.00
2022-10-22T03:56:50.741Z,0.00
2022-10-22T03:57:50.756Z,0.00
2022-10-22T03:58:50.765Z,0.00
2022-10-22T03:59:50.778Z,0.00
2022-10-22T04:00:50.887Z,0.00
2022-10-22T04:01:50.795Z,0.00
2022-10-22T04:02:50.803Z,0.00
2022-10-22T04:03:50.816Z,0.00
2022-10-22T04:04:50.847Z,0.00
2022-10-22T04:05:50.840Z,0.00
2022-10-22T04:06:50.846Z,0.00
2022-10-22T04:07:50.881Z,0.00
2022-10-22T04:08:50.916Z,0.00
2022-10-22T04:09:50.880Z,0.00
2022-10-22T04:10:50.891Z,0.00
2022-10-22T04:11:50.901Z,0.00
2022-10-22T04:12:50.910Z,0.00
2022-10-22T04:13:50.924Z,0.00
2022-10-22T04:14:50.936Z,0.00
2022-10-22T04:15:50.949Z,0.00
2022-10-22T04:16:50.954Z,0.00
2022-10-22T04:17:50.969Z,0.00
2022-10-22T04:18:50.983Z,0.00
2022-10-22T04:19:50.999Z,0.00
2022-10-22T04:20:51.017Z,0.00
2022-10-22T04:21:51.010Z,0.00
2022-10-22T04:22:51.033Z,0.00
2022-10-22T04:23:51.031Z,0.00
2022-10-22T04:25:51.055Z,0.00
2022-10-22T04:26:51.062Z,0.00
2022-10-22T04:27:51.080Z,0.00
2022-10-22T04:28:51.087Z,0.00
2022-10-22T04:29:51.098Z,0.00
2022-10-22T04:30:51.108Z,0.00
2022-10-22T04:31:51.118Z,0.00
2022-10-22T04:32:51.127Z,0.00
2022-10-22T04:33:51.139Z,0.00
2022-10-22T04:34:51.147Z,0.00
2022-10-22T04:35:51.173Z,0.00
2022-10-22T04:36:51.201Z,0.00
2022-10-22T04:37:51.181Z,0.00
2022-10-22T04:38:51.188Z,0.00
2022-10-22T04:39:51.210Z,0.00
2022-10-22T04:40:51.221Z,0.00
2022-10-22T04:41:51.225Z,0.00
2022-10-22T04:42:51.231Z,0.00
2022-10-22T04:43:51.244Z,0.00
2022-10-22T04:44:51.253Z,0.00
2022-10-22T04:45:51.310Z,0.00
2022-10-22T04:46:51.274Z,0.00
2022-10-22T04:47:51.296Z,0.00
2022-10-22T04:48:51.294Z,0.00
2022-10-22T04:49:51.308Z,0.00
2022-10-22T04:50:51.326Z,0.00
2022-10-22T04:51:51.325Z,0.00
2022-10-22T04:52:51.356Z,0.00
2022-10-22T04:53:51.352Z,0.00
2022-10-22T04:54:51.362Z,0.00
2022-10-22T04:55:51.373Z,0.00
2022-10-22T04:56:51.391Z,0.00
2022-10-22T04:57:51.392Z,0.00
2022-10-22T04:58:51.401Z,0.00
2022-10-22T04:59:51.411Z,0.00
2022-10-22T05:00:51.440Z,0.00
2022-10-22T05:01:51.434Z,0.00
2022-10-22T05:02:51.441Z,0.00
2022-10-22T05:03:51.453Z,0.00
2022-10-22T05:04:51.461Z,0.00
2022-10-22T05:05:51.474Z,0.00
2022-10-22T05:06:51.482Z,0.00
2022-10-22T05:07:51.494Z,0.00
2022-10-22T05:08:51.586Z,0.00
2022-10-22T05:09:51.516Z,0.00
2022-10-22T05:10:51.526Z,0.00
2022-10-22T05:11:51.537Z,0.00
2022-10-22T05:12:51.556Z,0.00
2022-10-22T05:13:51.608Z,0.00
2022-10-22T05:14:51.563Z,0.00
2022-10-22T05:15:51.577Z,0.00
2022-10-22T05:16:51.585Z,0.00
2022-10-22T05:17:51.608Z,0.00
2022-10-22T05:18:51.609Z,0.00
2022-10-22T05:19:51.625Z,0.00
2022-10-22T05:20:51.626Z,0.00
2022-10-22T05:21:51.643Z,0.00
2022-10-22T05:22:51.648Z,0.00
2022-10-22T05:23:51.662Z,0.00
2022-10-22T05:24:51.685Z,0.00
2022-10-22T05:25:51.678Z,0.00
2022-10-22T05:26:51.690Z,0.00
2022-10-22T05:27:51.699Z,0.00
2022-10-22T05:28:51.717Z,0.00
2022-10-22T05:29:51.720Z,0.00
2022-10-22T05:30:51.731Z,0.00
2022-10-22T05:31:51.740Z,0.00
2022-10-22T05:32:51.753Z,0.00
2022-10-22T05:33:51.761Z,0.00
2022-10-22T05:34:51.771Z,0.00
2022-10-22T05:35:51.783Z,0.00
2022-10-22T05:36:51.798Z,0.00
2022-10-22T05:37:51.849Z,0.00
2022-10-22T05:38:51.812Z,0.00
2022-10-22T05:40:01.739Z,0.00
2022-10-22T05:40:51.852Z,0.00
2022-10-22T05:41:51.843Z,0.00
2022-10-22T05:42:51.876Z,0.00
2022-10-22T05:43:51.865Z,0.00
2022-10-22T05:44:51.875Z,0.00
2022-10-22T05:45:51.983Z,0.00
2022-10-22T05:46:51.916Z,0.00
2022-10-22T05:47:51.906Z,0.00
2022-10-22T05:48:51.916Z,0.00
2022-10-22T05:49:51.927Z,0.00
2022-10-22T05:50:51.936Z,0.00
2022-10-22T05:51:51.965Z,4.00
2022-10-22T05:52:51.960Z,0.00
2022-10-22T05:53:51.975Z,0.00
2022-10-22T05:54:51.986Z,0.00
2022-10-22T05:55:51.985Z,0.00
2022-10-22T05:56:52.015Z,0.00
2022-10-22T05:57:52.015Z,0.00
2022-10-22T05:58:52.153Z,4.00
2022-10-22T05:59:52.029Z,4.00
2022-10-22T06:00:52.036Z,0.00
2022-10-22T06:01:52.116Z,0.00
2022-10-22T06:02:52.063Z,0.00
2022-10-22T06:03:52.067Z,4.00
2022-10-22T06:04:52.077Z,4.00
2022-10-22T06:05:52.089Z,0.00
2022-10-22T06:06:52.108Z,0.00
2022-10-22T06:07:52.109Z,4.00
2022-10-22T06:08:52.155Z,0.00
2022-10-22T06:09:52.130Z,4.00
2022-10-22T06:10:52.237Z,0.00
2022-10-22T06:11:52.150Z,4.00
2022-10-22T06:12:52.177Z,4.00
2022-10-22T06:13:52.169Z,4.00
2022-10-22T06:14:52.179Z,0.00
2022-10-22T06:15:52.188Z,4.00
2022-10-22T06:16:52.197Z,4.00
2022-10-22T06:17:52.212Z,4.00
2022-10-22T06:18:52.221Z,4.00
2022-10-22T06:19:52.281Z,4.00
2022-10-22T06:20:52.239Z,8.00
2022-10-22T06:21:52.255Z,4.00
2022-10-22T06:22:52.257Z,8.00
2022-10-22T06:23:52.269Z,8.00
2022-10-22T06:24:52.279Z,8.00
2022-10-22T06:25:52.290Z,12.00
2022-10-22T06:26:52.301Z,12.00
2022-10-22T06:27:52.310Z,12.00
2022-10-22T06:28:52.341Z,16.00
2022-10-22T06:29:52.332Z,12.00
2022-10-22T06:30:52.340Z,12.00
2022-10-22T06:31:52.351Z,12.00
2022-10-22T06:32:52.361Z,12.00
2022-10-22T06:33:52.375Z,16.00
2022-10-22T06:34:52.380Z,12.00
2022-10-22T06:35:52.411Z,12.00
2022-10-22T06:36:52.399Z,16.00
2022-10-22T06:37:52.413Z,12.00
2022-10-22T06:38:52.433Z,16.00
2022-10-22T06:39:52.436Z,16.00
2022-10-22T06:40:52.441Z,12.00
2022-10-22T06:41:52.455Z,12.00
2022-10-22T06:42:52.468Z,16.00
2022-10-22T06:43:52.474Z,16.00
2022-10-22T06:44:52.523Z,16.00
2022-10-22T06:45:52.602Z,16.00
2022-10-22T06:46:52.505Z,20.00
2022-10-22T06:47:52.513Z,24.00
2022-10-22T06:48:52.522Z,20.00
2022-10-22T06:49:52.534Z,20.00
2022-10-22T06:50:52.542Z,24.00
2022-10-22T06:51:52.567Z,24.00
2022-10-22T06:52:52.564Z,24.00
2022-10-22T06:53:52.573Z,24.00
2022-10-22T06:54:52.581Z,28.00
2022-10-22T06:55:52.598Z,24.00
2022-10-22T06:56:52.603Z,24.00
2022-10-22T06:57:52.613Z,24.00
2022-10-22T06:58:52.623Z,24.00
2022-10-22T06:59:52.637Z,24.00
2022-10-22T07:00:52.696Z,28.00
2022-10-22T07:01:52.722Z,28.00
2022-10-22T07:02:56.357Z,24.00
2022-10-22T07:03:52.673Z,24.00
2022-10-22T07:04:52.682Z,28.00
2022-10-22T07:05:52.695Z,24.00
2022-10-22T07:06:52.706Z,24.00
2022-10-22T07:07:52.720Z,24.00
2022-10-22T07:08:52.846Z,24.00
2022-10-22T07:09:52.740Z,24.00
2022-10-22T07:10:52.742Z,24.00
2022-10-22T07:11:52.756Z,28.00
2022-10-22T07:12:52.762Z,28.00
2022-10-22T07:13:52.876Z,28.00
2022-10-22T07:14:52.783Z,32.00
2022-10-22T07:15:52.794Z,32.00
2022-10-22T07:16:52.819Z,28.00
2022-10-22T07:17:52.825Z,28.00
2022-10-22T07:18:52.861Z,28.00
2022-10-22T07:19:52.834Z,28.00
2022-10-22T07:20:52.843Z,32.00
2022-10-22T07:21:52.854Z,32.00
2022-10-22T07:22:52.862Z,36.00
2022-10-22T07:23:52.872Z,36.00
2022-10-22T07:24:52.881Z,32.00
2022-10-22T07:25:52.925Z,36.00
2022-10-22T07:26:52.902Z,32.00
2022-10-22T07:27:52.914Z,32.00
2022-10-22T07:28:52.921Z,32.00
2022-10-22T07:29:52.933Z,32.00
2022-10-22T07:30:52.943Z,32.00
2022-10-22T07:31:52.951Z,40.00
2022-10-22T07:32:52.982Z,40.00
2022-10-22T07:33:52.977Z,40.00
2022-10-22T07:34:52.983Z,48.00
2022-10-22T07:35:52.990Z,52.00
2022-10-22T07:36:53.001Z,56.00
2022-10-22T07:37:53.012Z,60.00
2022-10-22T07:38:53.072Z,56.00
2022-10-22T07:39:53.029Z,52.00
2022-10-22T07:40:53.043Z,52.00
2022-10-22T07:41:53.052Z,52.00
2022-10-22T07:42:53.061Z,56.00
2022-10-22T07:43:53.071Z,64.00
2022-10-22T07:44:53.106Z,76.00
2022-10-22T07:45:53.090Z,76.00
2022-10-22T07:46:53.109Z,72.00
2022-10-22T07:47:53.111Z,80.00
2022-10-22T07:48:53.142Z,84.00
2022-10-22T07:49:53.233Z,92.00
2022-10-22T07:50:53.153Z,108.00
2022-10-22T07:51:53.154Z,104.00
2022-10-22T07:52:54.862Z,96.00
2022-10-22T07:53:53.184Z,112.00
2022-10-22T07:54:53.193Z,100.00
2022-10-22T07:55:53.196Z,100.00
2022-10-22T07:56:53.220Z,100.00
2022-10-22T07:57:53.217Z,112.00
2022-10-22T07:58:53.287Z,112.00
2022-10-22T07:59:53.337Z,116.00
2022-10-22T08:00:53.247Z,100.00
2022-10-22T08:01:53.258Z,76.00
2022-10-22T08:02:53.272Z,92.00
2022-10-22T08:03:53.278Z,96.00
2022-10-22T08:04:53.309Z,116.00
2022-10-22T08:05:53.300Z,132.00
2022-10-22T08:06:53.310Z,176.00
2022-10-22T08:07:53.325Z,120.00
2022-10-22T08:08:53.384Z,132.00
2022-10-22T08:09:53.341Z,172.00
2022-10-22T08:10:53.355Z,176.00
2022-10-22T08:11:53.363Z,192.00
2022-10-22T08:12:53.377Z,192.00
2022-10-22T08:13:53.384Z,196.00
2022-10-22T08:14:53.398Z,200.00
2022-10-22T08:15:56.559Z,200.00
2022-10-22T08:16:53.419Z,200.00
2022-10-22T08:17:53.428Z,200.00
2022-10-22T08:18:53.440Z,204.00
2022-10-22T08:19:53.450Z,208.00
2022-10-22T08:20:53.480Z,208.00
2022-10-22T08:21:53.474Z,212.00
2022-10-22T08:22:53.485Z,212.00
2022-10-22T08:23:53.610Z,216.00
2022-10-22T08:24:53.505Z,220.00
2022-10-22T08:25:53.525Z,224.00
2022-10-22T08:26:53.529Z,224.00
2022-10-22T08:27:53.538Z,228.00
2022-10-22T08:28:53.549Z,232.00
2022-10-22T08:29:53.558Z,236.00
2022-10-22T08:30:53.594Z,232.00
2022-10-22T08:31:53.588Z,236.00
2022-10-22T08:32:54.134Z,244.00
2022-10-22T08:33:53.602Z,240.00
2022-10-22T08:34:53.618Z,248.00
2022-10-22T08:35:53.625Z,248.00
2022-10-22T08:36:53.657Z,252.00
2022-10-22T08:37:53.651Z,256.00
2022-10-22T08:38:53.663Z,256.00
2022-10-22T08:39:53.670Z,260.00
2022-10-22T08:40:53.686Z,264.00
2022-10-22T08:41:53.696Z,272.00
2022-10-22T08:42:53.707Z,272.00
2022-10-22T08:43:53.719Z,280.00
2022-10-22T08:44:53.729Z,284.00
2022-10-22T08:45:53.738Z,288.00
2022-10-22T08:46:53.751Z,296.00
2022-10-22T08:47:53.758Z,304.00
2022-10-22T08:48:53.951Z,240.00
2022-10-22T08:49:53.784Z,292.00
2022-10-22T08:50:53.795Z,288.00
2022-10-22T08:51:53.806Z,256.00
2022-10-22T08:52:53.843Z,268.00
2022-10-22T08:53:53.833Z,244.00
2022-10-22T08:54:53.841Z,292.00
2022-10-22T08:55:53.852Z,336.00
2022-10-22T08:56:53.868Z,324.00
2022-10-22T08:57:53.882Z,324.00
2022-10-22T08:58:53.889Z,296.00
2022-10-22T08:59:53.904Z,284.00
2022-10-22T09:00:54.010Z,272.00
2022-10-22T09:01:53.922Z,212.00
2022-10-22T09:02:53.933Z,192.00
2022-10-22T09:03:53.946Z,172.00
2022-10-22T09:04:53.955Z,188.00
2022-10-22T09:05:54.071Z,196.00
2022-10-22T09:06:54.487Z,180.00
2022-10-22T09:07:53.997Z,204.00
2022-10-22T09:08:54.081Z,216.00
2022-10-22T09:09:54.014Z,284.00
2022-10-22T09:10:54.034Z,424.00
2022-10-22T09:11:54.051Z,364.00
2022-10-22T09:12:54.049Z,236.00
2022-10-22T09:13:54.079Z,324.00
2022-10-22T09:14:54.074Z,336.00
2022-10-22T09:15:54.083Z,400.00
2022-10-22T09:16:54.102Z,440.00
2022-10-22T09:17:54.108Z,424.00
2022-10-22T09:18:54.123Z,464.00
2022-10-22T09:19:54.131Z,432.00
2022-10-22T09:20:54.142Z,400.00
2022-10-22T09:21:54.161Z,416.00
2022-10-22T09:22:54.168Z,384.00
2022-10-22T09:23:54.175Z,372.00
2022-10-22T09:24:54.211Z,356.00
2022-10-22T09:25:54.201Z,364.00
2022-10-22T09:26:54.220Z,452.00
2022-10-22T09:27:54.227Z,356.00
2022-10-22T09:28:54.238Z,432.00
2022-10-22T09:29:54.252Z,520.00
2022-10-22T09:30:54.335Z,532.00
2022-10-22T09:31:54.277Z,468.00
2022-10-22T09:32:54.295Z,504.00
2022-10-22T09:33:54.306Z,372.00
2022-10-22T09:34:54.313Z,320.00
2022-10-22T09:35:54.325Z,304.00
2022-10-22T09:36:54.356Z,292.00
2022-10-22T09:37:54.349Z,284.00
2022-10-22T09:38:54.376Z,252.00
2022-10-22T09:39:54.376Z,340.00
2022-10-22T09:40:54.408Z,392.00
2022-10-22T09:41:54.399Z,488.00
2022-10-22T09:42:54.417Z,580.00
2022-10-22T09:43:54.424Z,612.00
2022-10-22T09:44:54.539Z,672.00
2022-10-22T09:45:54.450Z,700.00
2022-10-22T09:46:54.475Z,724.00
2022-10-22T09:48:01.959Z,680.00
2022-10-22T09:48:54.508Z,732.00
2022-10-22T09:49:54.512Z,736.00
2022-10-22T09:50:54.516Z,740.00
2022-10-22T09:51:54.527Z,744.00
2022-10-22T09:52:54.541Z,752.00
2022-10-22T09:53:54.554Z,732.00
2022-10-22T09:54:54.667Z,756.00
2022-10-22T09:56:54.612Z,772.00
2022-10-22T09:57:54.618Z,776.00
2022-10-22T09:58:54.622Z,780.00
2022-10-22T09:59:54.634Z,788.00
2022-10-22T10:00:54.646Z,796.00
2022-10-22T10:01:54.662Z,796.00
2022-10-22T10:02:54.716Z,804.00
2022-10-22T10:03:54.688Z,808.00
2022-10-22T10:04:54.804Z,816.00
2022-10-22T10:05:54.722Z,824.00
2022-10-22T10:06:54.735Z,828.00
2022-10-22T10:07:54.744Z,836.00
2022-10-22T10:08:54.783Z,844.00
2022-10-22T10:09:54.771Z,848.00
2022-10-22T10:10:54.793Z,852.00
2022-10-22T10:11:54.799Z,860.00
2022-10-22T10:12:54.839Z,868.00
2022-10-22T10:13:54.927Z,876.00
2022-10-22T10:14:54.844Z,904.00
2022-10-22T10:15:54.853Z,884.00
2022-10-22T10:16:54.876Z,888.00
2022-10-22T10:17:54.882Z,896.00
2022-10-22T10:18:54.900Z,904.00
2022-10-22T10:19:55.715Z,908.00
2022-10-22T10:20:54.926Z,908.00
2022-10-22T10:21:54.943Z,912.00
2022-10-22T10:22:54.954Z,916.00
2022-10-22T10:23:54.970Z,920.00
2022-10-22T10:24:55.034Z,924.00
2022-10-22T10:25:54.995Z,932.00
2022-10-22T10:26:55.032Z,932.00
2022-10-22T10:27:55.024Z,940.00
2022-10-22T10:28:55.061Z,944.00
2022-10-22T10:29:55.060Z,952.00
2022-10-22T10:30:55.071Z,956.00
2022-10-22T10:31:55.083Z,956.00
2022-10-22T10:32:55.105Z,960.00
2022-10-22T10:33:55.132Z,964.00
2022-10-22T10:34:55.144Z,972.00
2022-10-22T10:35:55.172Z,972.00
2022-10-22T10:36:55.160Z,976.00
2022-10-22T10:37:55.231Z,984.00
2022-10-22T10:38:55.190Z,984.00
2022-10-22T10:39:55.207Z,984.00
2022-10-22T10:40:55.218Z,988.00
2022-10-22T10:41:55.233Z,992.00
2022-10-22T10:42:55.250Z,996.00
2022-10-22T10:43:55.262Z,996.00
2022-10-22T10:44:55.311Z,996.00
2022-10-22T10:45:55.874Z,1004.00
2022-10-22T10:46:55.310Z,1004.00
2022-10-22T10:47:55.320Z,1008.00
2022-10-22T10:48:55.352Z,1012.00
2022-10-22T10:49:55.454Z,1016.00
2022-10-22T10:50:55.383Z,1012.00
2022-10-22T10:51:55.383Z,1020.00
2022-10-22T10:52:55.403Z,1024.00
2022-10-22T10:53:55.413Z,1024.00
2022-10-22T10:54:55.442Z,1024.00
2022-10-22T10:55:55.441Z,1028.00
2022-10-22T10:56:55.459Z,1028.00
2022-10-22T10:57:55.471Z,1032.00
2022-10-22T10:58:55.489Z,1036.00
2022-10-22T10:59:55.502Z,1036.00
2022-10-22T11:00:55.539Z,1036.00
2022-10-22T11:01:55.590Z,1044.00
2022-10-22T11:03:55.565Z,1048.00
2022-10-22T11:04:55.581Z,1048.00
2022-10-22T11:05:55.592Z,1048.00
2022-10-22T11:07:05.901Z,1052.00
2022-10-22T11:07:56.302Z,1052.00
2022-10-22T11:08:55.681Z,1056.00
2022-10-22T11:09:55.656Z,1060.00
2022-10-22T11:10:55.673Z,1060.00
2022-10-22T11:11:55.689Z,1060.00
2022-10-22T11:12:55.807Z,1064.00
2022-10-22T11:13:55.723Z,1068.00
2022-10-22T11:14:55.736Z,1068.00
2022-10-22T11:15:55.770Z,1068.00
2022-10-22T11:16:55.784Z,1072.00
2022-10-22T11:17:55.781Z,1076.00
2022-10-22T11:18:55.803Z,1072.00
2022-10-22T11:19:59.835Z,1072.00
2022-10-22T11:20:55.832Z,1076.00
2022-10-22T11:21:55.843Z,1080.00
2022-10-22T11:23:18.077Z,1080.00
2022-10-22T11:23:55.876Z,1080.00
2022-10-22T11:24:55.893Z,1080.00
2022-10-22T11:25:55.908Z,1080.00
2022-10-22T11:26:55.926Z,1084.00
2022-10-22T11:27:59.762Z,1088.00
2022-10-22T11:28:55.976Z,1092.00
2022-10-22T11:29:55.976Z,1088.00
2022-10-22T11:30:55.995Z,1092.00
2022-10-22T11:31:56.005Z,1092.00
2022-10-22T11:32:56.041Z,1092.00
2022-10-22T11:34:10.050Z,1092.00
2022-10-22T11:34:56.055Z,1096.00
2022-10-22T11:35:56.067Z,1096.00
2022-10-22T11:36:56.094Z,1100.00
2022-10-22T11:37:56.101Z,1096.00
2022-10-22T11:38:56.118Z,1100.00
2022-10-22T11:39:56.132Z,1096.00
2022-10-22T11:40:56.149Z,1096.00
2022-10-22T11:41:56.164Z,1100.00
2022-10-22T11:42:56.182Z,1104.00
2022-10-22T11:43:56.198Z,1100.00
2022-10-22T11:44:56.220Z,1100.00
2022-10-22T11:45:56.230Z,1104.00
2022-10-22T11:46:56.254Z,1104.00
2022-10-22T11:47:56.260Z,1108.00
2022-10-22T11:48:56.295Z,1108.00
2022-10-22T11:49:56.326Z,1108.00
2022-10-22T11:50:56.309Z,1112.00
2022-10-22T11:51:56.326Z,1108.00
2022-10-22T11:52:56.346Z,1116.00
2022-10-22T11:53:56.362Z,1112.00
2022-10-22T11:54:56.376Z,1116.00
2022-10-22T11:55:56.395Z,1120.00
2022-10-22T11:56:56.406Z,1120.00
2022-10-22T11:57:56.427Z,1120.00
2022-10-22T11:58:56.441Z,1124.00
2022-10-22T11:59:56.463Z,1124.00
2022-10-22T12:00:56.479Z,1128.00
2022-10-22T12:01:56.493Z,1128.00
2022-10-22T12:02:56.508Z,1128.00
2022-10-22T12:03:56.531Z,1132.00
2022-10-22T12:04:56.627Z,1132.00
2022-10-22T12:05:56.572Z,1132.00
2022-10-22T12:06:56.575Z,1136.00
2022-10-22T12:07:56.595Z,1140.00
2022-10-22T12:08:56.744Z,1140.00
2022-10-22T12:09:56.631Z,1144.00
2022-10-22T12:10:56.647Z,1148.00
2022-10-22T12:11:56.672Z,1144.00
2022-10-22T12:12:56.678Z,1148.00
2022-10-22T12:13:56.698Z,1148.00
2022-10-22T12:14:56.716Z,1148.00
2022-10-22T12:15:56.737Z,1148.00
2022-10-22T12:16:57.673Z,1148.00
2022-10-22T12:17:56.792Z,1152.00
2022-10-22T12:18:56.784Z,1152.00
2022-10-22T12:19:58.578Z,1156.00
2022-10-22T12:20:56.840Z,1156.00
2022-10-22T12:21:56.941Z,1160.00
2022-10-22T12:22:56.855Z,1164.00
2022-10-22T12:23:56.875Z,1164.00
2022-10-22T12:24:56.898Z,1164.00
2022-10-22T12:25:56.913Z,1164.00
2022-10-22T12:26:57.028Z,1168.00
2022-10-22T12:27:56.946Z,1168.00
2022-10-22T12:28:56.972Z,1168.00
2022-10-22T12:29:56.981Z,1172.00
2022-10-22T12:30:57.001Z,1176.00
2022-10-22T12:31:57.018Z,1176.00
2022-10-22T12:32:57.034Z,1176.00
2022-10-22T12:33:57.056Z,1176.00
2022-10-22T12:34:57.076Z,1180.00
2022-10-22T12:35:57.090Z,1180.00
2022-10-22T12:36:57.130Z,1188.00
2022-10-22T12:37:57.129Z,1188.00
2022-10-22T12:38:57.148Z,1184.00
2022-10-22T12:39:57.165Z,1188.00
2022-10-22T12:40:57.359Z,1192.00
2022-10-22T12:41:57.209Z,1192.00
2022-10-22T12:42:57.308Z,1196.00
2022-10-22T12:43:57.239Z,1200.00
2022-10-22T12:44:57.256Z,1196.00
2022-10-22T12:45:57.275Z,1200.00
2022-10-22T12:46:57.312Z,1200.00
2022-10-22T12:47:57.314Z,1200.00
2022-10-22T12:48:57.331Z,1208.00
2022-10-22T12:49:57.358Z,1212.00
2022-10-22T12:50:57.387Z,1212.00
2022-10-22T12:51:57.389Z,1212.00
2022-10-22T12:52:57.419Z,1208.00
2022-10-22T12:53:57.425Z,1212.00
2022-10-22T12:54:57.441Z,1208.00